Ashley Falls, Massachusetts
Current Conditions -  °F | °C
As of 4:02 PM on Thursday 23 Oct 2014 (Local Time) from KPSF Reporting Station
Overcast Overcast  
Wind Chill: 38°   Ceiling: 1400
Heat Index: 44°   Visibility: 10mi
Dew Point: 42°   Wind: 12mph
Humidity: 93%   Direction: 310°NW
Pressure: 29.73"   Gusts: NA
Location:  42.06°N, 73.34°W
Report Text: KPSF 232002Z AUTO 31010KT 10SM OVC014 07/06 A2973 RMK AO2 T00670056 $
Loading
Personal Weather Stations






























Interactive Weather Map New forecast layout! Learn more

10-Day Weather Forecast

Advertisements
Track Severe Weather on mobile